Time;durP1;ratioP1;P1;durP2;ratioP2;P2;SDS_P1;SDS_P2;PMS_P1;PMS_P2;Temp;Humidity;BMP_temperature;BMP_pressure;BME280_temperature;BME280_humidity;BME280_pressure;Samples;Min_cycle;Max_cycle;Signal;HPM_P1;HPM_P2
2021/06/05 00:00:23;;;;;;;5.10;4.17;;;15.70;99.90;;;;;;5270214;28;20242;-72
2021/06/05 00:02:55;;;;;;;7.83;4.23;;;15.60;99.90;;;;;;5270396;28;20219;-70
2021/06/05 00:05:32;;;;;;;7.87;4.50;;;15.60;99.90;;;;;;5270346;28;20230;-70
2021/06/05 00:08:06;;;;;;;5.07;4.40;;;15.50;99.90;;;;;;5270497;28;20211;-69
2021/06/05 00:14:34;;;;;;;7.87;5.00;;;15.40;99.90;;;;;;5270145;28;20171;-70
2021/06/05 00:17:06;;;;;;;6.60;4.97;;;15.30;99.90;;;;;;5270336;28;20196;-71
2021/06/05 00:19:38;;;;;;;8.13;5.07;;;15.30;99.90;;;;;;5269939;28;20188;-69
2021/06/05 00:22:10;;;;;;;6.60;4.90;;;15.30;99.90;;;;;;5270248;28;20221;-69
2021/06/05 00:24:43;;;;;;;8.07;5.50;;;15.20;99.90;;;;;;5270270;28;20529;-71
2021/06/05 00:31:10;;;;;;;8.73;5.70;;;15.20;99.90;;;;;;5269823;28;20179;-70
2021/06/05 00:33:42;;;;;;;6.57;5.20;;;15.10;99.90;;;;;;5269953;28;20189;-70
2021/06/05 00:36:15;;;;;;;5.53;4.83;;;15.10;99.90;;;;;;5270003;28;20192;-70
2021/06/05 00:38:47;;;;;;;6.57;5.10;;;15.00;99.90;;;;;;5270114;28;20189;-70
2021/06/05 00:41:19;;;;;;;6.23;4.80;;;15.00;99.90;;;;;;5269867;28;20729;-68
2021/06/05 00:43:54;;;;;;;6.97;5.10;;;15.00;99.90;;;;;;5269989;28;20199;-69
2021/06/05 00:46:28;;;;;;;5.37;4.83;;;14.90;99.90;;;;;;5269774;28;20237;-72
2021/06/05 00:49:03;;;;;;;7.77;4.53;;;14.90;99.90;;;;;;5269660;28;20275;-71
2021/06/05 00:51:42;;;;;;;6.03;5.00;;;14.80;99.90;;;;;;5269867;28;20195;-69
2021/06/05 00:54:16;;;;;;;7.37;5.37;;;14.80;99.90;;;;;;5269888;28;20188;-70
2021/06/05 00:56:52;;;;;;;6.47;4.97;;;14.80;99.90;;;;;;5270119;28;20541;-69
2021/06/05 00:59:24;;;;;;;6.10;5.33;;;14.80;99.90;;;;;;5252132;28;20238;-69
2021/06/05 01:01:56;;;;;;;5.80;5.10;;;14.70;99.90;;;;;;5270528;28;20586;-71
2021/06/05 01:04:28;;;;;;;6.27;4.80;;;14.70;99.90;;;;;;5270740;28;20189;-72
2021/06/05 01:07:09;;;;;;;7.03;5.30;;;14.60;99.90;;;;;;5270684;28;20196;-71
2021/06/05 01:09:55;;;;;;;10.83;5.30;;;14.60;99.90;;;;;;5271004;28;20556;-70
2021/06/05 01:12:48;;;;;;;6.83;5.40;;;14.50;99.90;;;;;;5270968;28;20204;-69
2021/06/05 01:15:31;;;;;;;6.17;5.30;;;14.40;99.90;;;;;;5269481;28;20188;-68
2021/06/05 01:18:13;;;;;;;10.33;5.23;;;14.40;99.90;;;;;;5270275;28;20193;-68
2021/06/05 01:20:53;;;;;;;7.27;5.20;;;14.40;99.90;;;;;;5271175;28;20223;-69
2021/06/05 01:23:31;;;;;;;6.10;5.20;;;14.40;99.90;;;;;;5271859;28;20196;-71
2021/06/05 01:30:06;;;;;;;7.03;5.47;;;14.40;99.90;;;;;;5271522;28;20168;-68
2021/06/05 01:32:39;;;;;;;9.10;5.87;;;14.30;99.90;;;;;;5271452;28;20188;-70
2021/06/05 01:35:14;;;;;;;7.80;5.90;;;14.30;99.90;;;;;;5271267;28;20204;-70
2021/06/05 01:37:46;;;;;;;11.03;6.00;;;14.30;99.90;;;;;;5252296;28;20543;-69
2021/06/05 01:40:18;;;;;;;8.97;6.13;;;14.30;99.90;;;;;;5268768;28;20199;-68
2021/06/05 01:46:48;;;;;;;11.70;6.60;;;14.30;99.90;;;;;;5269127;28;20201;-68
2021/06/05 01:49:21;;;;;;;8.47;5.93;;;14.30;99.90;;;;;;5269032;28;20188;-69
2021/06/05 01:52:01;;;;;;;10.40;6.13;;;14.30;99.90;;;;;;5268671;28;20531;-69
2021/06/05 01:54:41;;;;;;;7.50;6.20;;;14.30;99.90;;;;;;5268502;28;20199;-67
2021/06/05 01:57:18;;;;;;;8.90;6.30;;;14.30;99.90;;;;;;5268564;28;20193;-69
2021/06/05 01:59:50;;;;;;;11.37;6.60;;;14.20;99.90;;;;;;5268721;28;20629;-67
2021/06/05 02:02:22;;;;;;;12.47;6.00;;;14.20;99.90;;;;;;5268707;28;20221;-71
2021/06/05 02:04:54;;;;;;;8.27;6.40;;;14.20;99.90;;;;;;5268787;28;20215;-69
2021/06/05 02:07:26;;;;;;;10.10;6.50;;;14.20;99.90;;;;;;5268804;28;20196;-69
2021/06/05 02:09:58;;;;;;;11.03;6.83;;;14.10;99.90;;;;;;5269019;28;20552;-69
2021/06/05 02:12:32;;;;;;;8.67;7.10;;;14.10;99.90;;;;;;5268751;28;20189;-71
2021/06/05 02:15:10;;;;;;;9.67;6.50;;;14.10;99.90;;;;;;5272615;28;20563;-69
2021/06/05 02:17:44;;;;;;;9.83;7.00;;;14.10;99.90;;;;;;5272636;28;20532;-70
2021/06/05 02:20:26;;;;;;;9.93;6.33;;;14.10;99.90;;;;;;5272499;28;20197;-69
2021/06/05 02:23:02;;;;;;;8.90;6.70;;;14.10;99.90;;;;;;5272435;28;20211;-70
2021/06/05 02:25:33;;;;;;;9.27;6.67;;;14.10;99.90;;;;;;5272410;28;20548;-69
2021/06/05 02:28:08;;;;;;;8.70;6.57;;;14.10;99.90;;;;;;5272262;28;20204;-69
2021/06/05 02:30:40;;;;;;;7.77;6.97;;;14.10;99.90;;;;;;5271985;28;20191;-69
2021/06/05 02:33:12;;;;;;;8.90;6.37;;;14.10;99.90;;;;;;5272062;28;20639;-69
2021/06/05 02:35:46;;;;;;;10.73;6.93;;;14.10;99.90;;;;;;5271932;28;20200;-70
2021/06/05 02:38:19;;;;;;;11.67;7.63;;;14.10;99.90;;;;;;5271873;28;20266;-70
2021/06/05 02:40:51;;;;;;;11.40;7.17;;;14.10;99.90;;;;;;5272116;28;20220;-72
2021/06/05 02:43:28;;;;;;;9.33;6.60;;;14.20;99.90;;;;;;5272070;28;20197;-70
2021/06/05 02:46:17;;;;;;;8.90;6.50;;;14.20;99.90;;;;;;5253932;28;20188;-69
2021/06/05 02:48:57;;;;;;;7.50;6.17;;;14.30;99.90;;;;;;5272168;28;20196;-69
2021/06/05 02:51:42;;;;;;;8.30;6.50;;;14.30;99.90;;;;;;5272088;28;20647;-69
2021/06/05 02:54:14;;;;;;;10.33;6.57;;;14.40;99.90;;;;;;5271913;28;20188;-69
2021/06/05 03:00:45;;;;;;;7.93;5.97;;;14.40;99.90;;;;;;5271847;28;20226;-69
2021/06/05 03:03:20;;;;;;;8.93;5.80;;;14.40;99.90;;;;;;5271907;28;20278;-70
2021/06/05 03:05:52;;;;;;;15.50;6.83;;;14.40;99.90;;;;;;5271765;28;20187;-70
2021/06/05 03:08:27;;;;;;;8.27;5.90;;;14.40;99.90;;;;;;5271888;28;20192;-71
2021/06/05 03:15:29;;;;;;;8.10;6.70;;;14.40;99.90;;;;;;5208146;28;20194;-70
2021/06/05 03:18:01;;;;;;;12.47;6.30;;;14.40;99.90;;;;;;5208085;28;20595;-71
2021/06/05 03:20:36;;;;;;;7.90;6.50;;;14.40;99.90;;;;;;5208344;28;20229;-70
2021/06/05 03:23:10;;;;;;;8.93;5.77;;;14.50;99.90;;;;;;5208645;28;20206;-68
2021/06/05 03:25:42;;;;;;;8.30;6.10;;;14.50;99.90;;;;;;5208223;28;20685;-71
2021/06/05 03:31:59;;;;;;;8.73;6.10;;;14.60;99.90;;;;;;5206948;28;20197;-69
2021/06/05 03:34:31;;;;;;;11.03;6.27;;;14.60;99.90;;;;;;5206436;28;20229;-69
2021/06/05 03:37:07;;;;;;;8.20;5.50;;;14.70;99.90;;;;;;5206463;28;20193;-70
2021/06/05 03:39:39;;;;;;;8.80;6.17;;;14.70;99.90;;;;;;5206293;28;20205;-68
2021/06/05 03:42:11;;;;;;;11.43;6.43;;;14.70;99.90;;;;;;5206316;28;20285;-70
2021/06/05 03:44:43;;;;;;;10.13;6.60;;;14.80;99.90;;;;;;5235303;28;20204;-72
2021/06/05 03:47:19;;;;;;;9.43;6.10;;;14.80;99.90;;;;;;5270819;28;20203;-70
2021/06/05 03:49:52;;;;;;;9.13;6.23;;;14.90;99.90;;;;;;5270482;28;20227;-70
2021/06/05 03:52:24;;;;;;;8.73;6.23;;;14.90;99.90;;;;;;5270406;28;20204;-71
2021/06/05 03:54:57;;;;;;;9.27;5.97;;;15.00;99.90;;;;;;5270755;28;20192;-70
2021/06/05 03:57:32;;;;;;;8.13;5.83;;;15.00;99.90;;;;;;5270351;28;20188;-71
2021/06/05 04:00:11;;;;;;;9.53;6.33;;;15.10;99.90;;;;;;5270237;28;20239;-71
2021/06/05 04:02:43;;;;;;;10.30;6.47;;;15.10;99.90;;;;;;5270266;28;20223;-70
2021/06/05 04:05:17;;;;;;;9.90;6.30;;;15.20;99.90;;;;;;5270002;28;20184;-69
2021/06/05 04:07:49;;;;;;;9.53;6.33;;;15.30;99.90;;;;;;5270071;28;20204;-70
2021/06/05 04:10:23;;;;;;;9.00;5.60;;;15.30;99.90;;;;;;5270224;28;20195;-69
2021/06/05 04:12:57;;;;;;;9.73;6.10;;;15.30;99.90;;;;;;5270155;28;20192;-69
2021/06/05 04:15:32;;;;;;;9.50;6.17;;;15.40;99.90;;;;;;5270025;28;20229;-70
2021/06/05 04:18:10;;;;;;;7.77;6.33;;;15.40;99.90;;;;;;5270328;28;20234;-71
2021/06/05 04:20:43;;;;;;;10.40;6.27;;;15.50;99.90;;;;;;5270124;28;20188;-70
2021/06/05 04:23:16;;;;;;;11.07;6.07;;;15.60;99.90;;;;;;5270215;28;20220;-69
2021/06/05 04:25:48;;;;;;;7.87;5.80;;;15.70;99.90;;;;;;5270415;28;20192;-70
2021/06/05 04:28:22;;;;;;;8.13;5.78;;;15.70;99.90;;;;;;5270487;28;20188;-70
2021/06/05 04:30:55;;;;;;;7.77;5.50;;;15.80;99.90;;;;;;5269744;28;20200;-70
2021/06/05 04:33:28;;;;;;;5.87;5.27;;;15.90;99.90;;;;;;5269801;28;20268;-71
2021/06/05 04:36:09;;;;;;;11.50;5.87;;;16.00;99.90;;;;;;5269510;28;20533;-70
2021/06/05 04:38:42;;;;;;;8.97;6.13;;;16.00;99.90;;;;;;5269444;28;20638;-69
2021/06/05 04:41:16;;;;;;;12.23;6.17;;;16.10;99.90;;;;;;5269391;28;20203;-68
2021/06/05 04:43:48;;;;;;;8.07;6.23;;;16.20;99.90;;;;;;5205155;28;20565;-70
2021/06/05 04:46:20;;;;;;;9.70;6.10;;;16.20;99.90;;;;;;5205306;28;20212;-69
2021/06/05 04:48:53;;;;;;;6.97;5.73;;;16.30;99.90;;;;;;5205416;28;20724;-71
2021/06/05 04:51:28;;;;;;;11.47;6.00;;;16.40;99.90;;;;;;5205426;28;20238;-70
2021/06/05 04:54:01;;;;;;;8.83;6.10;;;16.50;99.90;;;;;;5205872;28;20190;-67
2021/06/05 04:56:49;;;;;;;8.80;5.97;;;16.60;99.90;;;;;;5205559;28;20617;-70
2021/06/05 04:59:21;;;;;;;8.97;5.83;;;16.60;99.90;;;;;;5205232;28;20771;-68
2021/06/05 05:01:53;;;;;;;8.45;5.80;;;16.70;99.90;;;;;;5236768;28;20281;-69
2021/06/05 05:04:25;;;;;;;8.80;6.20;;;16.80;99.90;;;;;;5269767;28;20192;-68
2021/06/05 05:06:57;;;;;;;7.17;5.77;;;16.80;99.90;;;;;;5269501;28;20594;-68
2021/06/05 05:09:29;;;;;;;9.13;5.93;;;16.90;99.90;;;;;;5269638;28;20582;-68
2021/06/05 05:15:58;;;;;;;6.88;5.53;;;17.20;99.90;;;;;;5269221;28;20273;-67
2021/06/05 05:18:31;;;;;;;9.55;5.70;;;17.50;99.90;;;;;;5269329;28;20207;-69
2021/06/05 05:21:05;;;;;;;10.40;6.38;;;17.70;99.90;;;;;;5269039;28;20196;-71
2021/06/05 05:23:36;;;;;;;11.48;6.10;;;17.90;99.90;;;;;;5269086;28;20214;-66
2021/06/05 05:26:10;;;;;;;9.57;6.47;;;18.10;99.90;;;;;;5269251;28;20207;-67
2021/06/05 05:32:38;;;;;;;9.50;5.80;;;18.20;99.90;;;;;;5269081;28;20209;-70
2021/06/05 05:35:11;;;;;;;10.25;5.53;;;18.50;99.90;;;;;;5268869;28;20192;-69
2021/06/05 05:37:43;;;;;;;6.90;5.43;;;18.70;99.90;;;;;;5268875;28;20196;-69
2021/06/05 05:40:16;;;;;;;7.30;5.50;;;19.00;99.90;;;;;;5269183;28;20503;-69
2021/06/05 05:42:48;;;;;;;9.00;5.40;;;19.80;99.90;;;;;;5251037;28;20686;-71
2021/06/05 05:45:21;;;;;;;7.57;5.13;;;20.40;99.90;;;;;;5268874;28;20195;-68
2021/06/05 05:48:00;;;;;;;12.07;4.82;;;20.80;99.90;;;;;;5251756;28;20191;-68
2021/06/05 05:50:37;;;;;;;6.35;5.20;;;21.40;99.90;;;;;;5272855;28;20192;-68
2021/06/05 05:53:10;;;;;;;9.45;5.45;;;21.50;99.90;;;;;;5272817;28;20196;-73
2021/06/05 05:55:43;;;;;;;8.18;5.55;;;21.30;99.90;;;;;;5273193;28;20662;-68
2021/06/05 05:58:23;;;;;;;6.95;5.07;;;21.20;99.90;;;;;;5273022;28;20194;-69
2021/06/05 06:00:55;;;;;;;10.30;5.15;;;21.00;99.90;;;;;;5272615;28;20231;-71
2021/06/05 06:03:27;;;;;;;12.32;5.38;;;21.10;99.90;;;;;;5272892;28;20651;-72
2021/06/05 06:06:00;;;;;;;7.57;5.43;;;22.00;99.90;;;;;;5272918;28;20288;-70
2021/06/05 06:08:34;;;;;;;9.13;5.13;;;23.30;99.90;;;;;;5272532;28;20184;-71
2021/06/05 06:11:06;;;;;;;7.03;4.65;;;24.10;99.90;;;;;;5272756;28;20193;-70
2021/06/05 06:13:39;;;;;;;6.20;4.50;;;24.50;99.90;;;;;;5272628;28;20285;-70
2021/06/05 06:16:17;;;;;;;9.98;5.70;;;24.50;99.90;;;;;;5254446;28;20200;-70
2021/06/05 06:18:49;;;;;;;10.57;5.28;;;24.20;99.90;;;;;;5272307;28;20192;-71
2021/06/05 06:21:22;;;;;;;10.30;5.43;;;24.50;99.90;;;;;;5254233;28;20195;-72
2021/06/05 06:23:54;;;;;;;6.43;4.57;;;24.20;99.90;;;;;;5272750;28;20216;-71
2021/06/05 06:26:29;;;;;;;6.72;4.90;;;24.20;99.90;;;;;;5272184;28;20203;-68
2021/06/05 06:29:29;;;;;;;9.23;4.63;;;25.40;99.90;;;;;;5173731;28;20302;-71
2021/06/05 06:32:01;;;;;;;6.57;4.25;;;26.90;99.90;;;;;;5187217;28;20273;-68
2021/06/05 06:34:34;;;;;;;9.65;4.55;;;27.90;99.90;;;;;;5187211;28;20206;-72
2021/06/05 06:37:07;;;;;;;7.00;4.55;;;28.80;99.90;;;;;;5170851;28;20207;-71
2021/06/05 06:39:39;;;;;;;8.45;4.88;;;29.90;99.90;;;;;;5186826;28;20673;-69
2021/06/05 06:46:10;;;;;;;8.10;5.10;;;30.40;99.90;;;;;;5186953;28;20269;-70
2021/06/05 06:48:42;;;;;;;6.20;3.83;;;30.40;99.90;;;;;;5186795;28;20210;-72
2021/06/05 06:51:14;;;;;;;5.93;4.32;;;30.60;98.30;;;;;;5186960;28;20187;-69
2021/06/05 06:53:46;;;;;;;6.18;3.47;;;30.50;97.10;;;;;;5235012;28;20321;-72
2021/06/05 06:56:19;;;;;;;6.15;3.72;;;30.60;96.40;;;;;;5271651;28;20192;-71
2021/06/05 07:02:47;;;;;;;6.95;3.35;;;30.40;94.20;;;;;;5266191;28;20320;-69
2021/06/05 07:05:19;;;;;;;5.07;3.20;;;29.30;94.30;;;;;;5272109;28;20219;-68
2021/06/05 07:07:52;;;;;;;5.00;3.40;;;29.00;93.70;;;;;;5253529;28;20223;-71
2021/06/05 07:10:24;;;;;;;6.47;3.17;;;29.30;94.00;;;;;;5271765;28;20596;-71
2021/06/05 07:16:42;;;;;;;5.85;3.47;;;29.50;92.40;;;;;;5271577;28;20206;-70
2021/06/05 07:19:14;;;;;;;7.65;4.03;;;28.20;92.40;;;;;;5271776;28;20219;-69
2021/06/05 07:21:46;;;;;;;8.05;3.63;;;27.00;93.00;;;;;;5271376;28;20236;-71
2021/06/05 07:24:18;;;;;;;5.45;3.63;;;26.30;94.40;;;;;;5271447;28;20204;-73
2021/06/05 07:26:50;;;;;;;5.03;3.45;;;25.90;95.20;;;;;;5271243;28;20196;-72
2021/06/05 07:29:22;;;;;;;8.80;3.83;;;25.90;95.50;;;;;;5253555;28;20184;-71
2021/06/05 07:31:54;;;;;;;9.48;3.72;;;25.80;95.30;;;;;;5272413;28;20245;-68
2021/06/05 07:34:26;;;;;;;4.82;3.50;;;25.60;95.90;;;;;;5272462;28;20562;-69
2021/06/05 07:37:04;;;;;;;4.57;3.83;;;25.70;96.30;;;;;;5271778;28;20207;-68
2021/06/05 07:39:37;;;;;;;5.97;3.90;;;25.60;95.60;;;;;;5271394;28;20662;-70
2021/06/05 07:42:09;;;;;;;8.27;4.15;;;25.20;96.60;;;;;;5271338;28;20613;-69
2021/06/05 07:44:41;;;;;;;3.88;3.47;;;24.60;95.90;;;;;;5253345;28;20220;-68
2021/06/05 07:47:13;;;;;;;5.68;3.80;;;24.30;96.80;;;;;;5271346;28;20193;-71
2021/06/05 07:49:45;;;;;;;7.00;3.80;;;23.80;97.40;;;;;;5270543;28;20196;-69
2021/06/05 07:52:23;;;;;;;5.72;3.33;;;23.60;98.80;;;;;;5270784;28;20200;-70
2021/06/05 07:54:55;;;;;;;7.82;3.80;;;23.70;98.80;;;;;;5270836;28;20206;-68
2021/06/05 07:57:27;;;;;;;7.55;3.83;;;23.60;98.70;;;;;;5270570;28;20200;-69
2021/06/05 07:59:59;;;;;;;6.32;3.83;;;23.70;98.90;;;;;;5270361;28;20283;-68
2021/06/05 08:02:31;;;;;;;4.63;3.60;;;23.60;99.00;;;;;;5270344;28;20232;-69
2021/06/05 08:05:05;;;;;;;6.35;3.53;;;23.70;98.80;;;;;;5270996;28;20201;-69
2021/06/05 08:07:37;;;;;;;4.97;3.50;;;23.60;99.10;;;;;;5270427;28;20196;-71
2021/06/05 08:10:10;;;;;;;5.82;3.45;;;23.40;99.60;;;;;;5270364;28;20658;-70
2021/06/05 08:12:43;;;;;;;7.20;3.50;;;23.40;99.30;;;;;;5269877;28;20203;-68
2021/06/05 08:15:19;;;;;;;7.82;3.75;;;23.40;99.50;;;;;;5270267;28;20199;-72
2021/06/05 08:17:52;;;;;;;7.15;3.65;;;23.00;99.20;;;;;;5270647;28;20199;-72
2021/06/05 08:20:31;;;;;;;4.95;3.92;;;23.20;99.90;;;;;;5271229;28;20200;-72
2021/06/05 08:23:06;;;;;;;5.43;3.70;;;23.20;99.90;;;;;;5271671;28;20227;-72
2021/06/05 08:25:39;;;;;;;6.28;3.60;;;23.40;99.90;;;;;;5271247;28;20197;-71
2021/06/05 08:28:10;;;;;;;8.68;4.07;;;23.50;99.90;;;;;;5270531;28;20196;-70
2021/06/05 08:30:45;;;;;;;5.25;4.10;;;23.60;99.90;;;;;;5269989;28;20207;-71
2021/06/05 08:33:19;;;;;;;6.85;3.75;;;23.60;99.50;;;;;;5270339;28;20252;-71
2021/06/05 08:35:51;;;;;;;6.35;3.90;;;23.40;99.20;;;;;;5270132;28;20189;-71
2021/06/05 08:38:26;;;;;;;4.20;3.17;;;22.90;99.90;;;;;;5251759;28;20199;-69
2021/06/05 08:41:26;;;;;;;6.22;3.40;;;22.60;99.90;;;;;;5270106;28;20193;-71
2021/06/05 08:44:20;;;;;;;6.32;4.00;;;22.30;99.90;;;;;;5270011;28;20231;-71
2021/06/05 08:46:58;;;;;;;8.02;4.00;;;22.00;99.90;;;;;;5269655;28;20192;-68
2021/06/05 08:49:36;;;;;;;5.15;3.60;;;21.80;99.90;;;;;;5269821;28;20189;-69
2021/06/05 08:52:17;;;;;;;5.80;3.47;;;21.90;99.90;;;;;;5269967;28;20208;-68
2021/06/05 08:55:17;;;;;;;6.65;3.55;;;22.10;99.90;;;;;;5269603;28;20188;-69
2021/06/05 09:01:43;;;;;;;6.35;4.13;;;22.40;99.90;;;;;;5269271;28;20222;-71
2021/06/05 09:04:20;;;;;;;11.20;3.60;;;22.20;99.90;;;;;;5269397;28;20219;-73
2021/06/05 09:06:57;;;;;;;5.78;3.63;;;22.10;99.90;;;;;;5269379;28;20583;-70
2021/06/05 09:09:36;;;;;;;5.18;3.97;;;22.40;99.90;;;;;;5269059;28;20199;-73
2021/06/05 09:12:10;;;;;;;6.47;3.47;;;22.50;99.90;;;;;;5251382;28;20192;-71
2021/06/05 09:14:44;;;;;;;9.98;3.88;;;22.70;99.90;;;;;;5251584;28;20196;-70
2021/06/05 09:17:21;;;;;;;6.32;3.78;;;22.40;99.90;;;;;;5269088;28;20188;-70
2021/06/05 09:20:04;;;;;;;7.90;4.00;;;22.00;99.90;;;;;;5269044;28;20650;-71
2021/06/05 09:22:40;;;;;;;5.65;4.07;;;21.60;99.90;;;;;;5268280;28;20655;-71
2021/06/05 09:25:36;;;;;;;9.25;3.75;;;21.60;99.90;;;;;;5269377;28;20188;-69
2021/06/05 09:28:20;;;;;;;8.35;3.75;;;21.60;99.90;;;;;;5269354;28;20200;-71
2021/06/05 09:31:21;;;;;;;5.03;3.47;;;21.70;99.90;;;;;;5269203;28;20196;-70
2021/06/05 09:33:54;;;;;;;4.30;3.45;;;21.60;99.90;;;;;;5268833;28;20223;-70
2021/06/05 09:36:29;;;;;;;5.75;3.65;;;21.50;99.90;;;;;;5251404;28;20192;-70
2021/06/05 09:39:15;;;;;;;9.77;3.88;;;21.50;99.90;;;;;;5268948;28;20199;-70
2021/06/05 09:41:49;;;;;;;4.45;3.45;;;21.60;99.90;;;;;;5269077;28;20188;-70
2021/06/05 09:44:21;;;;;;;8.68;3.95;;;21.60;99.90;;;;;;5269287;28;20678;-72
2021/06/05 09:47:04;;;;;;;7.93;3.90;;;21.70;99.90;;;;;;5269155;28;20548;-71
2021/06/05 09:49:50;;;;;;;6.25;3.40;;;21.60;99.90;;;;;;5268738;28;20203;-69
2021/06/05 09:52:25;;;;;;;6.38;3.75;;;21.70;99.90;;;;;;5268819;28;20665;-73
2021/06/05 09:55:26;;;;;;;6.25;3.65;;;21.60;99.90;;;;;;5268993;28;20195;-68
2021/06/05 10:01:58;;;;;;;4.35;3.28;;;21.70;99.90;;;;;;5268604;28;20246;-69
2021/06/05 10:04:34;;;;;;;5.80;3.47;;;21.60;99.90;;;;;;5268731;28;20222;-69
2021/06/05 10:07:27;;;;;;;4.93;3.78;;;21.50;99.90;;;;;;5268544;28;20188;-70
2021/06/05 10:10:04;;;;;;;5.50;3.72;;;21.30;99.90;;;;;;5268766;28;20192;-71
2021/06/05 10:12:39;;;;;;;5.65;3.45;;;21.00;99.90;;;;;;5268667;28;20196;-69
2021/06/05 10:15:15;;;;;;;6.22;3.65;;;20.80;99.90;;;;;;5268486;28;20220;-72
2021/06/05 10:17:52;;;;;;;6.38;3.05;;;20.80;99.90;;;;;;5268703;28;20245;-71
2021/06/05 10:20:49;;;;;;;7.32;2.67;;;20.90;99.90;;;;;;5268390;28;20191;-72
2021/06/05 10:23:34;;;;;;;8.02;3.03;;;21.00;99.90;;;;;;5268680;28;20216;-71
2021/06/05 10:26:21;;;;;;;4.40;2.88;;;21.00;99.60;;;;;;5268726;28;20257;-68
2021/06/05 10:28:59;;;;;;;5.88;3.03;;;21.10;99.90;;;;;;5268284;28;20207;-70
2021/06/05 10:31:33;;;;;;;5.75;3.10;;;21.10;98.90;;;;;;5268411;28;20192;-68
2021/06/05 10:34:27;;;;;;;5.50;2.65;;;21.10;98.70;;;;;;5268705;28;20192;-69
2021/06/05 10:36:59;;;;;;;8.07;3.00;;;21.20;99.50;;;;;;5272237;28;20310;-72
2021/06/05 10:39:38;;;;;;;5.88;2.80;;;21.30;98.40;;;;;;5271982;28;20207;-71
2021/06/05 10:46:22;;;;;;;4.50;2.40;;;21.40;95.70;;;;;;5207712;28;20209;-70
2021/06/05 10:49:12;;;;;;;2.92;2.28;;;21.50;95.60;;;;;;5207533;28;20209;-71
2021/06/05 10:51:46;;;;;;;4.50;2.42;;;21.50;94.70;;;;;;5207527;28;20194;-73
2021/06/05 10:54:28;;;;;;;4.75;2.45;;;21.50;94.40;;;;;;5207937;28;20213;-69
2021/06/05 11:01:29;;;;;;;4.55;2.13;;;21.50;93.20;;;;;;5207866;28;20229;-72
2021/06/05 11:04:06;;;;;;;4.80;2.15;;;21.20;92.00;;;;;;5186998;28;20222;-72
2021/06/05 11:06:47;;;;;;;5.15;2.40;;;21.10;92.40;;;;;;5186719;28;20202;-72
2021/06/05 11:09:29;;;;;;;3.25;2.58;;;21.10;92.10;;;;;;5186647;28;20209;-71
2021/06/05 11:19:04;;;;;;;2.80;2.45;;;21.10;92.30;;;;;;5227883;28;20304;-70
2021/06/05 11:21:55;;;;;;;3.38;2.17;;;21.20;91.80;;;;;;5227639;28;20204;-70
2021/06/05 11:24:27;;;;;;;4.60;2.00;;;21.10;91.90;;;;;;5210992;28;20217;-70
2021/06/05 11:27:02;;;;;;;4.05;2.13;;;21.20;92.10;;;;;;5227233;28;20237;-70
2021/06/05 11:33:58;;;;;;;4.28;2.30;;;21.10;92.50;;;;;;5227448;28;20240;-73
2021/06/05 11:36:41;;;;;;;6.45;2.50;;;21.20;92.40;;;;;;5145377;28;20207;-70
2021/06/05 11:39:36;;;;;;;4.72;2.45;;;21.30;92.40;;;;;;5145368;28;20212;-70
2021/06/05 11:46:38;;;;;;;5.05;2.78;;;21.20;91.60;;;;;;5065921;29;20206;-70
2021/06/05 11:50:02;;;;;;;6.22;2.35;;;21.30;91.90;;;;;;5066389;29;20198;-71
2021/06/05 11:52:40;;;;;;;4.22;2.28;;;21.30;92.00;;;;;;5046843;29;20621;-70
2021/06/05 11:55:12;;;;;;;3.92;2.25;;;21.30;92.40;;;;;;5086044;29;20222;-71
2021/06/05 11:57:52;;;;;;;4.72;2.45;;;21.20;93.00;;;;;;5085509;29;20206;-69
2021/06/05 12:00:37;;;;;;;4.43;2.55;;;21.20;93.00;;;;;;5069881;29;20639;-69
2021/06/05 12:03:33;;;;;;;7.80;2.47;;;21.30;93.40;;;;;;5098090;29;20241;-69
2021/06/05 12:06:55;;;;;;;5.78;2.72;;;21.30;93.40;;;;;;5104809;29;20383;-71
2021/06/05 12:09:26;;;;;;;7.38;3.20;;;21.20;93.80;;;;;;5081969;28;20225;-70
2021/06/05 12:12:01;;;;;;;3.47;2.47;;;21.30;93.90;;;;;;5089642;29;20226;-69
2021/06/05 12:17:23;;;;;;;6.90;2.83;;;21.50;93.70;;;;;;5124563;29;20193;-71
2021/06/05 12:20:16;;;;;;;7.43;2.65;;;21.50;93.60;;;;;;5171189;28;20235;-70
2021/06/05 12:22:52;;;;;;;5.68;2.85;;;21.50;93.60;;;;;;5184528;28;20291;-70
2021/06/05 12:25:29;;;;;;;6.78;2.70;;;21.40;93.60;;;;;;5168366;28;20214;-70
2021/06/05 12:32:09;;;;;;;5.20;3.20;;;21.40;93.10;;;;;;5184532;28;20171;-68
2021/06/05 12:34:42;;;;;;;5.05;2.92;;;21.50;93.20;;;;;;5184672;28;20281;-68
2021/06/05 12:37:22;;;;;;;6.00;2.50;;;21.40;92.90;;;;;;5184724;28;20203;-68
2021/06/05 12:39:57;;;;;;;3.72;1.95;;;21.40;92.90;;;;;;5184714;28;20206;-68
2021/06/05 12:42:35;;;;;;;5.40;2.60;;;21.40;92.30;;;;;;5184803;28;20203;-68
2021/06/05 12:45:14;;;;;;;5.63;2.60;;;21.40;92.00;;;;;;5193057;28;20691;-70
2021/06/05 12:47:50;;;;;;;4.70;2.50;;;21.40;91.90;;;;;;5248662;28;20239;-68
2021/06/05 12:50:40;;;;;;;4.57;2.50;;;21.40;92.60;;;;;;5248314;28;20189;-69
2021/06/05 12:53:22;;;;;;;4.07;2.58;;;21.40;92.80;;;;;;5248284;28;20192;-67
2021/06/05 12:56:00;;;;;;;6.25;2.65;;;21.40;92.60;;;;;;5248717;28;20189;-67
2021/06/05 12:58:43;;;;;;;5.78;2.70;;;21.50;92.50;;;;;;5247821;28;20212;-68
2021/06/05 13:01:31;;;;;;;3.45;2.25;;;21.50;91.70;;;;;;5248727;28;20220;-68
2021/06/05 13:04:06;;;;;;;4.68;2.95;;;21.40;91.40;;;;;;5267300;28;20244;-71
2021/06/05 13:07:00;;;;;;;4.03;2.80;;;21.30;92.20;;;;;;5269083;28;20638;-69
2021/06/05 13:09:35;;;;;;;4.38;2.42;;;21.40;92.50;;;;;;5269381;28;20215;-69
2021/06/05 13:12:23;;;;;;;8.48;2.60;;;21.40;92.50;;;;;;5268941;28;20192;-70
2021/06/05 13:15:17;;;;;;;4.32;2.45;;;21.40;92.20;;;;;;5268941;28;20196;-67
2021/06/05 13:17:54;;;;;;;3.38;2.33;;;21.40;91.80;;;;;;5269187;28;20521;-69
2021/06/05 13:20:53;;;;;;;3.10;2.80;;;21.40;91.70;;;;;;5251390;28;20196;-67
2021/06/05 13:23:39;;;;;;;5.45;2.55;;;21.40;92.00;;;;;;5251200;28;20613;-69
2021/06/05 13:26:28;;;;;;;5.15;2.22;;;21.60;92.00;;;;;;5269054;28;20192;-70
2021/06/05 13:32:56;;;;;;;6.47;2.60;;;21.60;91.60;;;;;;5269600;28;20171;-71
2021/06/05 13:35:45;;;;;;;3.83;2.70;;;21.70;92.10;;;;;;5251442;28;20197;-70
2021/06/05 13:38:23;;;;;;;4.32;2.63;;;21.70;92.70;;;;;;5269300;28;20197;-70
2021/06/05 13:40:58;;;;;;;5.68;2.85;;;21.60;92.00;;;;;;5269268;28;20219;-70
2021/06/05 13:43:30;;;;;;;3.85;2.80;;;21.60;92.80;;;;;;5250978;28;20219;-71
2021/06/05 13:46:03;;;;;;;6.57;2.80;;;21.40;92.70;;;;;;5269027;28;20222;-70
2021/06/05 13:48:35;;;;;;;5.25;2.90;;;21.30;92.00;;;;;;5268730;28;20192;-70
2021/06/05 13:51:06;;;;;;;3.85;2.80;;;21.20;92.90;;;;;;5268901;28;20188;-70
2021/06/05 13:53:39;;;;;;;5.93;2.88;;;21.10;93.80;;;;;;5268882;28;20630;-69
2021/06/05 13:56:15;;;;;;;6.25;2.80;;;21.10;94.60;;;;;;5268846;28;20552;-70
2021/06/05 13:58:48;;;;;;;3.38;2.83;;;21.20;94.10;;;;;;5251011;28;20218;-70
2021/06/05 14:01:27;;;;;;;4.22;2.80;;;21.20;94.30;;;;;;5268499;28;20192;-69
2021/06/05 14:04:00;;;;;;;4.28;3.05;;;21.20;95.00;;;;;;5250582;28;20239;-69
2021/06/05 14:06:32;;;;;;;5.28;2.63;;;21.30;95.20;;;;;;5268633;28;20197;-70
2021/06/05 14:09:05;;;;;;;6.95;3.13;;;21.20;93.80;;;;;;5251757;28;20676;-71
2021/06/05 14:11:37;;;;;;;6.78;2.60;;;21.20;95.00;;;;;;5272378;28;20197;-71
2021/06/05 14:14:09;;;;;;;4.07;2.50;;;21.30;95.20;;;;;;5272201;28;20212;-72
2021/06/05 14:16:42;;;;;;;4.10;2.63;;;21.40;95.30;;;;;;5272511;28;20598;-70
2021/06/05 14:19:15;;;;;;;2.97;2.63;;;21.50;95.50;;;;;;5272215;28;20321;-71
2021/06/05 14:21:46;;;;;;;5.75;2.78;;;21.50;94.90;;;;;;5272306;28;20189;-71
2021/06/05 14:24:19;;;;;;;4.22;2.45;;;21.50;95.10;;;;;;5272037;28;20207;-70
2021/06/05 14:26:51;;;;;;;5.15;3.10;;;21.30;94.70;;;;;;5254075;28;20208;-72
2021/06/05 14:29:22;;;;;;;6.72;3.20;;;21.40;95.60;;;;;;5272276;28;20188;-70
2021/06/05 14:31:55;;;;;;;3.60;2.90;;;21.30;95.90;;;;;;5271999;28;20200;-72
2021/06/05 14:34:27;;;;;;;4.85;3.30;;;21.30;96.50;;;;;;5272196;28;20197;-69
2021/06/05 14:36:59;;;;;;;4.47;3.05;;;21.40;97.10;;;;;;5272046;28;20189;-71
2021/06/05 14:39:31;;;;;;;3.95;2.92;;;21.50;96.70;;;;;;5272187;28;20188;-72
2021/06/05 14:42:07;;;;;;;4.38;2.75;;;21.40;95.60;;;;;;5254688;28;20191;-70
2021/06/05 14:44:39;;;;;;;7.78;2.92;;;21.40;95.20;;;;;;5272010;28;20227;-72
2021/06/05 14:47:12;;;;;;;3.90;3.00;;;21.40;96.90;;;;;;5271920;28;20199;-70
2021/06/05 14:49:44;;;;;;;5.13;3.08;;;21.40;96.70;;;;;;5271648;28;20248;-69
2021/06/05 14:52:17;;;;;;;4.10;3.00;;;21.30;96.50;;;;;;5272031;28;20253;-72
2021/06/05 14:54:52;;;;;;;3.50;2.72;;;21.30;95.60;;;;;;5271945;28;20673;-72
2021/06/05 14:57:25;;;;;;;3.70;2.83;;;21.20;96.40;;;;;;5271760;28;20195;-71
2021/06/05 14:59:57;;;;;;;7.05;3.10;;;21.10;95.50;;;;;;5271809;28;20547;-70
2021/06/05 15:02:28;;;;;;;5.32;3.50;;;21.10;95.30;;;;;;5253395;28;20244;-71